Time;durP1;ratioP1;P1;durP2;ratioP2;P2;SDS_P1;SDS_P2;PMS_P1;PMS_P2;Temp;Humidity;BMP_temperature;BMP_pressure;BME280_temperature;BME280_humidity;BME280_pressure;Samples;Min_cycle;Max_cycle;Signal;HPM_P1;HPM_P2
2023/10/25 00:00:34;;;;;;;;;3.75;1.00;;;;;15.08;61.20;99310.72;5039875;28;45499;-69
2023/10/25 00:02:59;;;;;;;;;1.50;1.50;;;;;15.08;61.08;99308.09;5034343;28;66017;-69
2023/10/25 00:05:24;;;;;;;;;3.00;1.75;;;;;15.08;61.24;99304.63;5045482;28;69702;-69
2023/10/25 00:07:50;;;;;;;;;2.00;2.00;;;;;15.07;61.59;99305.56;5039616;28;45597;-69
2023/10/25 00:10:15;;;;;;;;;3.25;2.00;;;;;15.08;61.57;99300.19;5044519;28;56727;-68
2023/10/25 00:12:40;;;;;;;;;2.50;1.75;;;;;15.06;61.67;99288.09;5009816;28;45343;-68
2023/10/25 00:15:06;;;;;;;;;3.50;1.00;;;;;15.08;61.81;99291.47;5032222;28;64031;-68
2023/10/25 00:17:32;;;;;;;;;3.75;0.50;;;;;15.04;62.30;99275.00;5026199;28;46794;-68
2023/10/25 00:19:57;;;;;;;;;1.25;1.25;;;;;15.03;62.28;99267.22;5046838;28;59944;-69
2023/10/25 00:22:22;;;;;;;;;2.50;1.00;;;;;14.98;62.71;99259.66;5036676;28;68284;-68
2023/10/25 00:24:48;;;;;;;;;4.00;1.75;;;;;14.95;62.92;99257.22;5043271;28;57567;-68
2023/10/25 00:27:13;;;;;;;;;1.00;1.00;;;;;14.91;62.76;99263.63;5005582;28;73960;-68
2023/10/25 00:29:38;;;;;;;;;1.75;1.75;;;;;14.89;63.67;99261.13;5019446;28;71048;-69
2023/10/25 00:32:05;;;;;;;;;0.00;0.00;;;;;14.86;63.08;99271.03;5026610;28;45471;-68
2023/10/25 00:34:31;;;;;;;;;2.00;1.75;;;;;14.83;63.67;99271.22;5042249;28;45328;-68
2023/10/25 00:36:56;;;;;;;;;3.00;1.50;;;;;14.74;63.53;99273.53;5024198;28;45399;-67
2023/10/25 00:39:21;;;;;;;;;1.75;1.25;;;;;14.71;63.93;99279.00;5023559;28;60152;-68
2023/10/25 00:41:47;;;;;;;;;1.75;1.75;;;;;14.65;64.64;99271.53;5018379;28;61955;-69
2023/10/25 00:44:12;;;;;;;;;2.00;1.50;;;;;14.58;64.53;99268.44;5037587;28;69889;-68
2023/10/25 00:46:38;;;;;;;;;4.00;2.25;;;;;14.56;64.74;99253.69;5018144;28;63329;-68
2023/10/25 00:49:03;;;;;;;;;2.75;2.00;;;;;14.51;65.11;99242.63;5023150;28;45444;-70
2023/10/25 00:51:30;;;;;;;;;3.75;3.00;;;;;14.50;65.27;99254.09;5023398;28;65381;-67
2023/10/25 00:53:56;;;;;;;;;4.00;2.00;;;;;14.43;65.69;99243.97;5017680;28;45531;-67
2023/10/25 00:56:24;;;;;;;;;1.00;1.00;;;;;14.41;66.31;99245.00;5042230;28;46262;-67
2023/10/25 00:58:52;;;;;;;;;2.00;1.00;;;;;14.41;66.39;99242.38;5022663;28;45732;-68
2023/10/25 01:01:18;;;;;;;;;1.75;1.25;;;;;14.39;66.76;99236.38;5031113;28;45237;-68
2023/10/25 01:03:44;;;;;;;;;1.00;1.00;;;;;14.37;66.46;99231.22;5009523;28;45465;-68
2023/10/25 01:06:09;;;;;;;;;0.75;0.50;;;;;14.31;67.18;99220.28;5044802;28;45434;-68
2023/10/25 01:08:36;;;;;;;;;1.00;1.00;;;;;14.28;66.89;99205.53;5005159;28;67555;-68
2023/10/25 01:11:02;;;;;;;;;2.00;1.00;;;;;14.29;66.98;99206.34;5041013;28;57788;-67
2023/10/25 01:13:27;;;;;;;;;1.25;1.25;;;;;14.26;67.93;99199.53;5023598;28;45530;-68
2023/10/25 01:15:52;;;;;;;;;3.00;1.75;;;;;14.22;68.03;99184.91;5047131;28;46029;-68
2023/10/25 01:18:18;;;;;;;;;0.50;0.50;;;;;14.19;68.50;99174.56;5026269;28;45289;-68
2023/10/25 01:20:43;;;;;;;;;2.25;1.00;;;;;14.15;69.10;99166.03;5052654;28;45328;-67
2023/10/25 01:23:09;;;;;;;;;2.00;1.50;;;;;14.13;68.70;99164.44;5034942;28;45506;-68
2023/10/25 01:25:34;;;;;;;;;1.00;1.00;;;;;14.11;68.42;99159.31;5021522;28;46472;-68
2023/10/25 01:28:00;;;;;;;;;1.75;1.25;;;;;14.10;69.23;99151.53;5026990;28;45415;-68
2023/10/25 01:30:26;;;;;;;;;1.00;1.00;;;;;14.06;68.97;99137.72;5028622;28;45348;-69
2023/10/25 01:32:52;;;;;;;;;1.00;1.00;;;;;14.05;69.18;99128.97;5023890;28;45431;-69
2023/10/25 01:35:18;;;;;;;;;2.00;0.50;;;;;14.05;69.51;99110.56;5049034;28;45398;-69
2023/10/25 01:37:43;;;;;;;;;1.00;1.00;;;;;14.03;69.92;99101.94;5025530;28;45289;-71
2023/10/25 01:40:09;;;;;;;;;1.25;1.00;;;;;14.01;69.74;99087.22;5051275;28;45530;-69
2023/10/25 01:42:35;;;;;;;;;2.00;2.00;;;;;13.99;70.04;99082.06;5046254;28;45393;-69
2023/10/25 01:45:03;;;;;;;;;1.00;1.00;;;;;13.92;70.43;99067.66;5056679;28;45420;-69
2023/10/25 01:47:28;;;;;;;;;1.00;0.00;;;;;13.95;70.18;99074.47;5030732;28;45883;-68
2023/10/25 01:49:54;;;;;;;;;3.00;1.50;;;;;13.89;70.65;99057.31;5055204;28;45338;-68
2023/10/25 01:52:19;;;;;;;;;1.00;1.00;;;;;13.92;70.55;99043.16;5021386;28;45493;-68
2023/10/25 01:54:46;;;;;;;;;1.00;1.00;;;;;13.90;70.42;99048.50;5036130;28;45559;-68
2023/10/25 01:57:11;;;;;;;;;1.75;0.00;;;;;13.90;71.80;99037.97;5048521;28;45825;-68
2023/10/25 01:59:37;;;;;;;;;1.50;1.00;;;;;13.87;70.70;99040.81;5022018;28;45523;-68
2023/10/25 02:02:02;;;;;;;;;2.00;0.50;;;;;13.79;71.04;99019.44;5032432;28;64842;-68
2023/10/25 02:04:27;;;;;;;;;1.00;1.00;;;;;13.88;70.66;99028.50;5009564;28;71435;-67
2023/10/25 02:06:53;;;;;;;;;0.25;0.25;;;;;13.85;71.34;99027.75;5006013;28;45389;-68
2023/10/25 02:09:18;;;;;;;;;1.25;1.25;;;;;13.85;70.85;99021.69;5028292;28;45380;-67
2023/10/25 02:11:44;;;;;;;;;2.50;1.00;;;;;13.85;71.37;99006.72;5024830;28;45295;-68
2023/10/25 02:14:09;;;;;;;;;1.00;1.00;;;;;13.80;71.61;98995.69;5027059;28;46139;-66
2023/10/25 02:16:35;;;;;;;;;1.00;1.00;;;;;13.78;71.60;98986.22;5040309;28;46466;-67
2023/10/25 02:19:00;;;;;;;;;1.75;0.00;;;;;13.77;71.70;98979.28;5037233;28;45482;-67
2023/10/25 02:21:26;;;;;;;;;2.50;1.25;;;;;13.74;72.40;98980.34;5030192;28;59326;-67
2023/10/25 02:23:53;;;;;;;;;0.75;0.75;;;;;13.75;72.44;98983.81;5047739;28;46365;-67
2023/10/25 02:26:18;;;;;;;;;2.25;1.00;;;;;13.76;71.70;98972.34;5023147;28;45316;-68
2023/10/25 02:28:43;;;;;;;;;1.00;1.00;;;;;13.77;72.11;98959.06;5041932;28;45517;-69
2023/10/25 02:31:09;;;;;;;;;1.00;1.00;;;;;13.77;71.80;98951.19;5036006;28;61887;-68
2023/10/25 02:33:34;;;;;;;;;0.00;0.00;;;;;13.79;71.83;98935.31;5021965;28;59477;-68
2023/10/25 02:35:59;;;;;;;;;3.00;1.00;;;;;13.78;71.65;98931.03;5042095;28;45292;-69
2023/10/25 02:38:25;;;;;;;;;1.75;1.75;;;;;13.81;72.69;98925.53;5021729;28;62891;-69
2023/10/25 02:40:50;;;;;;;;;2.50;1.00;;;;;13.80;72.06;98918.59;5028619;28;45576;-69
2023/10/25 02:43:15;;;;;;;;;1.00;1.00;;;;;13.82;72.81;98909.66;5004844;28;72060;-68
2023/10/25 02:45:41;;;;;;;;;2.00;1.00;;;;;13.80;72.20;98903.66;5043400;28;50443;-68
2023/10/25 02:48:12;;;;;;;;;1.25;1.00;;;;;13.85;72.25;98906.81;5027997;28;57870;-68
2023/10/25 02:50:37;;;;;;;;;1.00;0.50;;;;;13.88;72.27;98895.22;5013173;28;45526;-68
2023/10/25 02:53:03;;;;;;;;;1.00;1.00;;;;;13.90;72.72;98897.75;5022202;28;74172;-68
2023/10/25 02:55:28;;;;;;;;;4.25;1.00;;;;;13.90;72.48;98879.34;5041957;28;70948;-68
2023/10/25 02:57:54;;;;;;;;;1.00;1.00;;;;;13.90;72.38;98888.09;5049040;28;45506;-68
2023/10/25 03:00:19;;;;;;;;;2.00;1.00;;;;;13.92;72.29;98873.03;5021718;28;67412;-68
2023/10/25 03:02:45;;;;;;;;;0.75;0.75;;;;;13.96;72.44;98871.88;5039699;28;45349;-68
2023/10/25 03:05:11;;;;;;;;;1.75;1.75;;;;;13.94;73.64;98865.88;5022060;28;45390;-68
2023/10/25 03:07:36;;;;;;;;;1.50;1.25;;;;;13.94;73.61;98858.00;5031831;28;45374;-68
2023/10/25 03:10:02;;;;;;;;;1.00;1.00;;;;;13.97;74.61;98862.19;5019414;28;45467;-68
2023/10/25 03:12:29;;;;;;;;;0.00;0.00;;;;;13.93;73.56;98845.78;5044901;28;45471;-68
2023/10/25 03:14:55;;;;;;;;;2.50;1.00;;;;;13.93;73.07;98843.16;5005873;28;45829;-68
2023/10/25 03:17:21;;;;;;;;;1.00;1.00;;;;;13.93;73.99;98845.78;5033517;28;45463;-68
2023/10/25 03:19:46;;;;;;;;;2.25;1.00;;;;;13.92;73.83;98838.03;5039847;28;45567;-68
2023/10/25 03:22:12;;;;;;;;;3.00;2.00;;;;;13.94;74.47;98836.13;5047110;28;74371;-68
2023/10/25 03:24:37;;;;;;;;;1.00;1.00;;;;;13.89;74.84;98836.44;5042348;28;46382;-68
2023/10/25 03:27:02;;;;;;;;;1.00;1.00;;;;;13.91;75.06;98828.44;5039105;28;61470;-68
2023/10/25 03:29:28;;;;;;;;;2.00;1.00;;;;;13.92;74.50;98835.41;5037479;28;45337;-68
2023/10/25 03:31:57;;;;;;;;;2.00;2.00;;;;;13.91;75.22;98824.03;5024770;28;54084;-68
2023/10/25 03:34:23;;;;;;;;;3.00;1.25;;;;;13.94;74.66;98817.72;5038654;28;45769;-68
2023/10/25 03:36:50;;;;;;;;;2.75;1.50;;;;;13.91;75.58;98813.50;5021853;28;45415;-68
2023/10/25 03:39:15;;;;;;;;;1.25;1.25;;;;;13.86;75.10;98803.34;5026854;28;45305;-68
2023/10/25 03:41:42;;;;;;;;;2.25;2.00;;;;;13.88;75.76;98795.31;5037728;28;66892;-67
2023/10/25 03:44:08;;;;;;;;;1.00;1.00;;;;;13.84;77.01;98784.16;5024981;28;45265;-69
2023/10/25 03:46:33;;;;;;;;;3.00;1.50;;;;;13.85;75.67;98791.13;5057242;28;45632;-68
2023/10/25 03:48:58;;;;;;;;;4.00;2.25;;;;;13.82;75.76;98786.06;5024769;28;62943;-69
2023/10/25 03:51:24;;;;;;;;;1.00;1.00;;;;;13.80;76.45;98785.34;5040036;28;45589;-68
2023/10/25 03:53:49;;;;;;;;;0.50;0.50;;;;;13.81;76.17;98771.28;5027742;28;72131;-68
2023/10/25 03:56:14;;;;;;;;;1.75;1.75;;;;;13.82;76.45;98772.94;5024047;28;59241;-69
2023/10/25 03:58:40;;;;;;;;;1.25;1.00;;;;;13.88;76.78;98771.63;5001521;28;45317;-68
2023/10/25 04:01:06;;;;;;;;;1.00;1.00;;;;;13.91;76.06;98760.91;5015813;28;45550;-68
2023/10/25 04:03:32;;;;;;;;;5.00;2.00;;;;;13.90;76.84;98750.50;5007176;28;45265;-68
2023/10/25 04:05:57;;;;;;;;;1.50;0.50;;;;;13.91;77.95;98739.88;5015199;28;45264;-68
2023/10/25 04:08:25;;;;;;;;;0.75;0.75;;;;;13.91;77.16;98741.66;4985248;28;45743;-68
2023/10/25 04:10:52;;;;;;;;;1.50;1.00;;;;;13.89;79.55;98744.41;5010760;28;46582;-68
2023/10/25 04:13:21;;;;;;;;;0.00;0.00;;;;;13.89;77.80;98735.69;5006295;28;45675;-68
2023/10/25 04:15:56;;;;;;;;;2.00;1.00;;;;;13.90;77.65;98729.47;4990852;28;45331;-68
2023/10/25 04:18:23;;;;;;;;;3.75;2.00;;;;;13.91;77.35;98726.72;4991954;28;45533;-68
2023/10/25 04:20:48;;;;;;;;;1.00;1.00;;;;;13.91;77.54;98721.47;4993701;28;46396;-68
2023/10/25 04:23:14;;;;;;;;;1.75;1.75;;;;;13.91;78.48;98715.38;5010368;28;45337;-68
2023/10/25 04:25:39;;;;;;;;;1.00;1.00;;;;;13.96;78.97;98713.25;5011205;28;45416;-68
2023/10/25 04:28:05;;;;;;;;;3.25;2.00;;;;;13.96;80.12;98710.63;5002784;28;48558;-68
2023/10/25 04:30:32;;;;;;;;;1.00;1.00;;;;;13.93;80.76;98709.03;5009972;28;45482;-68
2023/10/25 04:32:57;;;;;;;;;1.25;1.25;;;;;13.90;80.63;98696.16;5001023;28;45399;-68
2023/10/25 04:35:23;;;;;;;;;2.75;1.50;;;;;13.85;82.70;98706.16;5001457;28;64414;-68
2023/10/25 04:37:48;;;;;;;;;2.00;1.00;;;;;13.81;80.01;98699.41;5016862;28;73447;-68
2023/10/25 04:40:13;;;;;;;;;3.25;1.75;;;;;13.84;80.20;98699.19;4999811;28;74740;-68
2023/10/25 04:42:39;;;;;;;;;1.25;1.25;;;;;13.81;80.71;98689.75;5008193;28;72376;-69
2023/10/25 04:45:05;;;;;;;;;2.00;1.00;;;;;13.85;80.28;98693.00;5003767;28;45494;-68
2023/10/25 04:47:30;;;;;;;;;2.00;2.00;;;;;13.87;81.71;98685.84;5010216;28;45292;-68
2023/10/25 04:49:57;;;;;;;;;1.00;1.00;;;;;13.87;81.70;98688.47;5004695;28;45329;-68
2023/10/25 04:52:23;;;;;;;;;1.00;1.00;;;;;13.89;81.48;98691.00;5007454;28;45449;-68
2023/10/25 04:54:49;;;;;;;;;1.00;1.00;;;;;13.88;82.98;98687.50;5009767;28;45577;-68
2023/10/25 04:57:14;;;;;;;;;1.00;1.00;;;;;13.89;82.10;98680.47;5007220;28;45316;-68
2023/10/25 04:59:40;;;;;;;;;1.00;1.00;;;;;13.90;81.69;98685.63;5019988;28;58158;-68
2023/10/25 05:02:05;;;;;;;;;1.00;1.00;;;;;13.84;81.14;98670.28;5021897;28;54422;-68
2023/10/25 05:04:30;;;;;;;;;2.00;2.00;;;;;13.95;81.12;98682.63;5020771;28;45458;-69
2023/10/25 05:06:56;;;;;;;;;2.00;2.00;;;;;13.94;81.04;98676.53;5019911;28;60173;-69
2023/10/25 05:09:22;;;;;;;;;2.00;1.50;;;;;13.98;81.91;98669.28;5019899;28;45518;-69
2023/10/25 05:11:56;;;;;;;;;0.25;0.00;;;;;14.00;81.73;98673.44;5027596;28;45605;-69
2023/10/25 05:14:22;;;;;;;;;1.00;1.00;;;;;14.02;81.45;98674.19;5026879;28;45328;-69
2023/10/25 05:16:48;;;;;;;;;1.00;1.00;;;;;14.06;80.87;98669.53;5022441;28;45421;-69
2023/10/25 05:19:13;;;;;;;;;1.00;1.00;;;;;14.08;82.17;98667.63;5022177;28;47270;-69
2023/10/25 05:21:42;;;;;;;;;2.00;2.00;;;;;14.11;81.79;98679.72;5024687;28;45459;-68
2023/10/25 05:24:08;;;;;;;;;2.00;1.00;;;;;14.13;81.41;98669.91;5005276;28;45254;-69
2023/10/25 05:26:33;;;;;;;;;2.50;1.50;;;;;14.16;81.10;98674.94;5016344;28;45414;-68
2023/10/25 05:28:59;;;;;;;;;4.00;1.00;;;;;14.18;81.05;98673.03;5018241;28;47067;-68
2023/10/25 05:31:26;;;;;;;;;2.25;1.25;;;;;14.24;80.63;98675.22;5001892;28;45433;-69
2023/10/25 05:33:52;;;;;;;;;1.00;1.00;;;;;14.24;80.77;98662.06;5023328;28;45378;-70
2023/10/25 05:36:18;;;;;;;;;2.00;1.25;;;;;14.33;80.19;98671.88;5002643;28;45304;-70
2023/10/25 05:38:43;;;;;;;;;3.75;2.25;;;;;14.37;80.42;98673.31;5019105;28;47161;-69
2023/10/25 05:41:12;;;;;;;;;5.00;2.00;;;;;14.40;81.04;98665.19;5002004;28;45282;-71
2023/10/25 05:43:38;;;;;;;;;2.50;1.00;;;;;14.37;79.85;98656.69;5017574;28;45249;-72
2023/10/25 05:46:04;;;;;;;;;2.00;2.00;;;;;14.49;80.18;98663.66;5033655;28;45609;-70
2023/10/25 05:48:29;;;;;;;;;2.00;2.00;;;;;14.53;79.93;98662.47;5026763;28;45238;-70
2023/10/25 05:51:02;;;;;;;;;2.00;1.00;;;;;14.55;80.53;98659.72;5019849;28;45494;-69
2023/10/25 05:53:27;;;;;;;;;2.75;2.00;;;;;14.58;79.85;98662.97;5026270;28;45312;-69
2023/10/25 05:55:53;;;;;;;;;2.75;2.75;;;;;14.62;79.87;98658.31;5000131;28;45287;-70
2023/10/25 05:58:18;;;;;;;;;2.00;2.00;;;;;14.66;79.95;98651.88;5020696;28;47027;-68
2023/10/25 06:00:49;;;;;;;;;3.50;2.00;;;;;14.70;79.91;98663.00;5022582;28;45525;-70
2023/10/25 06:03:16;;;;;;;;;2.00;2.00;;;;;14.72;79.71;98656.66;5023459;28;45419;-70
2023/10/25 06:05:42;;;;;;;;;4.00;1.25;;;;;14.79;79.48;98657.84;5003922;28;45515;-70
2023/10/25 06:08:08;;;;;;;;;1.25;1.25;;;;;14.81;79.52;98655.94;5017696;28;58346;-68
2023/10/25 06:10:33;;;;;;;;;2.00;2.00;;;;;14.82;79.22;98659.44;5019465;28;45400;-68
2023/10/25 06:12:59;;;;;;;;;2.00;2.00;;;;;14.88;79.49;98660.75;5018216;28;45337;-68
2023/10/25 06:15:25;;;;;;;;;4.00;0.50;;;;;14.91;79.51;98668.38;5030282;28;45269;-68
2023/10/25 06:17:51;;;;;;;;;1.50;1.50;;;;;14.90;79.62;98664.09;5024447;28;68150;-68
2023/10/25 06:20:19;;;;;;;;;2.00;2.00;;;;;14.92;80.07;98663.00;5032930;28;45766;-68
2023/10/25 06:22:45;;;;;;;;;3.25;2.00;;;;;14.94;80.04;98669.00;5022703;28;45514;-68
2023/10/25 06:25:10;;;;;;;;;2.50;2.00;;;;;14.97;79.93;98662.66;5018912;28;45268;-68
2023/10/25 06:27:35;;;;;;;;;4.50;1.00;;;;;15.02;79.84;98667.56;5018932;28;72748;-69
2023/10/25 06:30:01;;;;;;;;;4.00;2.00;;;;;15.03;80.01;98671.84;5023252;28;65101;-69
2023/10/25 06:32:26;;;;;;;;;5.00;3.50;;;;;15.06;79.36;98669.00;5008975;28;45427;-70
2023/10/25 06:34:52;;;;;;;;;3.50;2.75;;;;;15.08;80.20;98667.06;5032272;28;45480;-69
2023/10/25 06:37:17;;;;;;;;;3.00;3.00;;;;;15.10;79.42;98673.03;5019033;28;45296;-68
2023/10/25 06:39:43;;;;;;;;;4.50;3.25;;;;;15.09;80.06;98674.84;5019304;28;45218;-69
2023/10/25 06:42:10;;;;;;;;;4.00;3.00;;;;;15.15;80.27;98682.25;5020473;28;45309;-67
2023/10/25 06:44:36;;;;;;;;;5.00;2.25;;;;;15.12;79.27;98679.03;4997654;28;46012;-67
2023/10/25 06:47:03;;;;;;;;;3.25;2.25;;;;;15.12;79.84;98689.56;5018398;28;46091;-68
2023/10/25 06:49:29;;;;;;;;;5.25;4.00;;;;;15.11;79.66;98693.19;5018416;28;45341;-67
2023/10/25 06:51:54;;;;;;;;;4.00;2.00;;;;;15.10;79.89;98692.34;5025253;28;45525;-67
2023/10/25 06:54:20;;;;;;;;;3.00;3.00;;;;;15.11;81.09;98701.09;5021303;28;45353;-68
2023/10/25 06:56:46;;;;;;;;;3.25;3.00;;;;;15.11;80.16;98704.53;5018308;28;45426;-67
2023/10/25 06:59:11;;;;;;;;;1.00;1.00;;;;;15.10;80.10;98704.66;5017954;28;45452;-67
2023/10/25 07:01:42;;;;;;;;;1.50;1.50;;;;;15.10;80.38;98708.16;5018714;28;45293;-67
2023/10/25 07:04:12;;;;;;;;;2.25;1.00;;;;;15.12;79.75;98714.13;5020770;28;45385;-67
2023/10/25 07:06:39;;;;;;;;;1.00;1.00;;;;;15.16;79.68;98718.19;5023454;28;45265;-68
2023/10/25 07:09:04;;;;;;;;;1.00;1.00;;;;;15.19;79.48;98711.84;5017040;28;69509;-68
2023/10/25 07:11:29;;;;;;;;;4.50;2.00;;;;;15.25;79.85;98713.19;5019736;28;45368;-67
2023/10/25 07:13:55;;;;;;;;;1.75;1.75;;;;;15.31;79.11;98717.94;5020527;28;64367;-67
2023/10/25 07:16:20;;;;;;;;;3.25;1.00;;;;;15.33;78.55;98719.53;5026128;28;61065;-68
2023/10/25 07:18:47;;;;;;;;;0.75;0.75;;;;;15.38;78.52;98725.22;5019406;28;55104;-67
2023/10/25 07:21:13;;;;;;;;;0.00;0.00;;;;;15.40;78.52;98730.38;5005117;28;45419;-67
2023/10/25 07:23:38;;;;;;;;;2.00;0.00;;;;;15.42;77.98;98731.09;5039718;28;45485;-68
2023/10/25 07:26:03;;;;;;;;;1.25;0.00;;;;;15.38;77.50;98732.31;5016943;28;47831;-67
2023/10/25 07:28:29;;;;;;;;;1.00;0.00;;;;;15.46;77.52;98737.81;5015099;28;45421;-68
2023/10/25 07:30:54;;;;;;;;;0.50;0.00;;;;;15.49;77.33;98731.47;5002576;28;55755;-68
2023/10/25 07:33:21;;;;;;;;;0.50;0.50;;;;;15.53;76.93;98741.66;5014794;28;45447;-68
2023/10/25 07:35:46;;;;;;;;;1.00;0.00;;;;;15.55;77.09;98731.81;5023620;28;45984;-67
2023/10/25 07:38:11;;;;;;;;;0.00;0.00;;;;;15.57;76.92;98732.53;5015054;28;45373;-67
2023/10/25 07:40:38;;;;;;;;;0.00;0.00;;;;;15.63;76.65;98747.00;5013486;28;69466;-67
2023/10/25 07:43:04;;;;;;;;;0.50;0.50;;;;;15.65;76.62;98731.94;5024127;28;45492;-67
2023/10/25 07:45:29;;;;;;;;;0.75;0.75;;;;;15.68;76.44;98747.50;5028386;28;46538;-67
2023/10/25 07:47:55;;;;;;;;;0.00;0.00;;;;;15.72;76.11;98745.44;5020766;28;45570;-68
2023/10/25 07:50:20;;;;;;;;;0.00;0.00;;;;;15.68;76.13;98738.75;5023156;28;45487;-67
2023/10/25 07:52:45;;;;;;;;;0.00;0.00;;;;;15.76;76.24;98746.91;5020774;28;65808;-67
2023/10/25 07:55:11;;;;;;;;;0.75;0.75;;;;;15.77;75.63;98745.94;5028021;28;71985;-67
2023/10/25 07:57:36;;;;;;;;;0.25;0.25;;;;;15.75;75.54;98743.44;5022563;28;45550;-67
2023/10/25 08:00:03;;;;;;;;;0.00;0.00;;;;;15.77;75.63;98745.94;5019376;28;45845;-67
2023/10/25 08:02:28;;;;;;;;;0.50;0.00;;;;;15.81;75.44;98746.53;5018139;28;45388;-67
2023/10/25 08:04:54;;;;;;;;;0.50;0.50;;;;;15.81;75.30;98754.44;5002609;28;74331;-67
2023/10/25 08:07:19;;;;;;;;;1.00;1.00;;;;;15.83;75.21;98749.88;5018619;28;68178;-68
2023/10/25 08:09:46;;;;;;;;;1.75;1.00;;;;;15.83;74.98;98761.28;5020779;28;45277;-68
2023/10/25 08:12:12;;;;;;;;;0.00;0.00;;;;;15.86;74.90;98757.56;5005389;28;45748;-68
2023/10/25 08:14:37;;;;;;;;;0.75;0.25;;;;;15.87;74.77;98753.97;5004739;28;47166;-67
2023/10/25 08:17:03;;;;;;;;;0.25;0.25;;;;;15.90;74.88;98770.38;5019917;28;66393;-68
2023/10/25 08:19:30;;;;;;;;;2.00;0.50;;;;;15.92;74.89;98759.72;5004778;28;45388;-68
2023/10/25 08:21:55;;;;;;;;;2.00;0.50;;;;;15.96;74.44;98768.22;5020886;28;45486;-70
2023/10/25 08:24:21;;;;;;;;;2.00;0.50;;;;;15.98;74.60;98751.28;5004445;28;46681;-68
2023/10/25 08:26:46;;;;;;;;;1.75;1.00;;;;;16.02;74.30;98759.78;5020762;28;45415;-69
2023/10/25 08:29:11;;;;;;;;;1.75;0.75;;;;;16.04;74.18;98764.00;5020748;28;45455;-69
2023/10/25 08:31:37;;;;;;;;;1.00;1.00;;;;;16.04;73.73;98774.56;5023320;28;59358;-71
2023/10/25 08:34:02;;;;;;;;;1.25;1.25;;;;;16.05;73.86;98778.03;5025245;28;58022;-72
2023/10/25 08:36:31;;;;;;;;;0.50;0.00;;;;;16.02;74.00;98775.63;5004168;28;45475;-71
2023/10/25 08:38:56;;;;;;;;;1.00;1.00;;;;;16.03;73.92;98780.78;5019868;28;45433;-72
2023/10/25 08:41:24;;;;;;;;;0.75;0.75;;;;;16.08;73.50;98777.78;5022265;28;45279;-72
2023/10/25 08:43:50;;;;;;;;;0.50;0.50;;;;;16.00;73.87;98774.91;5010203;28;47943;-71
2023/10/25 08:46:18;;;;;;;;;3.00;0.50;;;;;16.09;73.71;98777.63;5027178;28;45376;-73
2023/10/25 08:48:43;;;;;;;;;1.75;0.50;;;;;16.12;73.12;98773.91;5000996;28;46553;-72
2023/10/25 08:51:08;;;;;;;;;1.00;0.75;;;;;16.12;73.56;98769.47;5030272;28;69473;-71
2023/10/25 08:53:35;;;;;;;;;1.00;1.00;;;;;16.21;73.35;98777.59;5019514;28;71995;-72
2023/10/25 08:56:00;;;;;;;;;2.75;0.75;;;;;16.21;73.36;98778.44;5024127;28;45440;-72
2023/10/25 08:58:26;;;;;;;;;2.75;0.50;;;;;16.27;73.05;98782.38;5019731;28;45388;-72
2023/10/25 09:00:52;;;;;;;;;1.00;0.50;;;;;16.31;73.20;98775.91;5038787;28;45554;-72
2023/10/25 09:03:30;;;;;;;;;2.50;1.75;;;;;16.39;73.06;98778.72;5020108;28;45379;-74
2023/10/25 09:05:55;;;;;;;;;2.00;1.50;;;;;16.47;72.51;98772.81;5022521;28;45352;-72
2023/10/25 09:08:21;;;;;;;;;4.25;2.00;;;;;16.58;72.42;98777.22;5020985;28;45568;-72
2023/10/25 09:10:56;;;;;;;;;6.25;1.50;;;;;16.67;72.15;98777.25;5020315;28;45560;-72
2023/10/25 09:13:21;;;;;;;;;3.50;1.50;;;;;16.75;71.97;98779.28;5033254;28;46148;-71
2023/10/25 09:15:47;;;;;;;;;2.75;1.75;;;;;16.77;71.63;98768.56;5029628;28;45956;-66
2023/10/25 09:18:12;;;;;;;;;3.00;1.50;;;;;16.83;71.50;98774.19;5000758;28;59423;-69
2023/10/25 09:20:37;;;;;;;;;2.00;2.00;;;;;16.83;71.50;98768.06;5012352;28;45407;-68
2023/10/25 09:23:10;;;;;;;;;3.50;0.75;;;;;16.82;71.24;98775.16;5019936;28;54133;-68
2023/10/25 09:25:37;;;;;;;;;1.50;1.50;;;;;16.81;71.76;98760.25;5020271;28;45679;-68
2023/10/25 09:28:03;;;;;;;;;2.75;2.25;;;;;16.85;71.27;98772.25;5006305;28;45491;-69
2023/10/25 09:30:29;;;;;;;;;3.50;2.00;;;;;16.91;71.32;98763.00;5036773;28;45656;-69
2023/10/25 09:32:55;;;;;;;;;2.50;2.00;;;;;16.94;71.02;98764.53;5014650;28;45616;-68
2023/10/25 09:35:20;;;;;;;;;1.75;1.75;;;;;16.98;71.31;98768.56;5018761;28;72009;-69
2023/10/25 09:37:46;;;;;;;;;3.00;2.25;;;;;16.98;71.08;98766.78;5017621;28;61621;-67
2023/10/25 09:40:13;;;;;;;;;3.25;1.50;;;;;17.05;70.54;98769.72;5024528;28;45301;-67
2023/10/25 09:42:48;;;;;;;;;5.25;1.50;;;;;17.05;70.72;98767.09;5021945;28;47080;-68
2023/10/25 09:45:20;;;;;;;;;2.25;2.00;;;;;17.02;70.07;98770.00;5003424;28;45637;-68
2023/10/25 09:47:48;;;;;;;;;1.50;1.50;;;;;17.00;70.48;98758.75;5019383;28;45442;-72
2023/10/25 09:50:23;;;;;;;;;3.00;1.75;;;;;17.04;70.42;98768.91;5002365;28;45486;-75
2023/10/25 09:52:53;;;;;;;;;2.50;2.50;;;;;17.08;70.04;98766.84;5009666;28;47157;-71
2023/10/25 09:55:21;;;;;;;;;0.75;0.75;;;;;17.10;70.24;98770.19;4997414;28;45388;-73
2023/10/25 09:57:47;;;;;;;;;3.00;2.00;;;;;17.06;70.01;98758.19;5012118;28;45421;-72
2023/10/25 10:00:14;;;;;;;;;2.50;2.50;;;;;17.05;70.18;98767.94;5019069;28;60746;-73
2023/10/25 10:02:58;;;;;;;;;2.25;2.00;;;;;17.03;70.09;98769.88;5024390;28;45383;-73
2023/10/25 10:05:43;;;;;;;;;1.50;1.50;;;;;16.95;70.09;98760.94;5027329;28;45439;-74
2023/10/25 10:08:15;;;;;;;;;3.25;2.00;;;;;16.92;70.01;98763.84;5020138;28;45340;-73
2023/10/25 10:10:52;;;;;;;;;6.00;1.75;;;;;16.86;70.02;98763.38;5015600;28;45270;-72
2023/10/25 10:13:20;;;;;;;;;2.50;2.50;;;;;16.88;69.87;98769.38;5020436;28;46280;-70
2023/10/25 10:15:58;;;;;;;;;2.75;1.75;;;;;16.87;70.08;98770.34;5003987;28;45485;-73
2023/10/25 10:18:36;;;;;;;;;1.75;1.75;;;;;16.87;69.74;98772.13;5020440;28;45399;-75
2023/10/25 10:21:03;;;;;;;;;0.75;0.75;;;;;16.82;69.40;98758.44;5020386;28;45523;-73
2023/10/25 10:23:49;;;;;;;;;3.75;0.75;;;;;16.83;69.53;98765.41;5002653;28;47945;-73
2023/10/25 10:26:43;;;;;;;;;0.75;0.75;;;;;16.78;69.24;98771.06;5007692;28;45649;-72
2023/10/25 10:29:36;;;;;;;;;3.00;3.00;;;;;16.75;69.50;98760.78;5018608;28;45357;-72
2023/10/25 10:32:03;;;;;;;;;1.25;1.25;;;;;16.73;69.31;98757.41;5023239;28;45298;-74
2023/10/25 10:34:44;;;;;;;;;3.00;1.75;;;;;16.66;69.38;98767.69;5011905;28;46163;-72
2023/10/25 10:37:14;;;;;;;;;3.00;1.75;;;;;16.58;69.14;98774.56;5016147;28;45330;-73
2023/10/25 10:39:57;;;;;;;;;5.00;2.00;;;;;16.49;69.56;98768.25;5019060;28;45436;-72
2023/10/25 10:42:26;;;;;;;;;3.25;1.75;;;;;16.40;69.71;98764.56;5020465;28;45581;-73
2023/10/25 10:44:51;;;;;;;;;1.25;1.25;;;;;16.38;69.80;98763.00;5020388;28;45297;-72
2023/10/25 10:47:19;;;;;;;;;2.75;2.75;;;;;16.33;69.65;98766.03;5018917;28;64355;-73
2023/10/25 10:49:46;;;;;;;;;2.25;1.75;;;;;16.28;69.78;98760.31;5019142;28;45206;-73
2023/10/25 10:52:11;;;;;;;;;2.50;2.50;;;;;16.24;69.67;98764.16;5005860;28;45495;-72
2023/10/25 10:54:37;;;;;;;;;3.50;0.75;;;;;16.14;70.08;98774.63;5001961;28;47187;-72
2023/10/25 10:57:02;;;;;;;;;2.50;2.50;;;;;16.08;70.18;98770.69;5021226;28;45419;-73
2023/10/25 10:59:29;;;;;;;;;6.75;4.00;;;;;16.02;70.65;98770.34;5021534;28;45193;-73
2023/10/25 11:01:54;;;;;;;;;2.00;2.00;;;;;16.01;70.72;98769.50;5042002;28;45278;-73
2023/10/25 11:04:20;;;;;;;;;2.25;1.00;;;;;15.98;70.46;98766.28;5023121;28;47093;-72
2023/10/25 11:06:45;;;;;;;;;2.25;2.25;;;;;15.96;70.47;98770.84;5024249;28;45278;-71
2023/10/25 11:09:11;;;;;;;;;2.75;2.75;;;;;15.88;71.14;98774.94;5043812;28;45633;-72
2023/10/25 11:11:36;;;;;;;;;4.50;4.50;;;;;15.88;71.28;98782.88;5028670;28;45481;-71
2023/10/25 11:14:02;;;;;;;;;4.00;4.00;;;;;15.83;71.50;98774.47;5049455;28;45396;-73
2023/10/25 11:16:29;;;;;;;;;4.50;3.50;;;;;15.85;72.11;98780.47;5013559;28;45454;-72
2023/10/25 11:19:06;;;;;;;;;4.75;4.50;;;;;15.83;72.10;98770.97;5004727;28;45441;-74
2023/10/25 11:21:33;;;;;;;;;9.75;5.50;;;;;15.83;72.69;98777.13;5020799;28;45285;-71
2023/10/25 11:23:58;;;;;;;;;2.75;2.75;;;;;15.82;72.73;98772.78;5027008;28;45467;-71
2023/10/25 11:26:23;;;;;;;;;5.00;5.00;;;;;15.81;72.56;98772.91;5024303;28;45430;-76
2023/10/25 11:28:49;;;;;;;;;3.25;3.25;;;;;15.81;74.63;98770.28;5021497;28;48666;-72
2023/10/25 11:31:14;;;;;;;;;4.75;3.75;;;;;15.86;73.69;98770.75;5028622;28;58639;-74